createdAt,value
2018-06-25T00:00:09.500Z,18.29
2018-06-25T00:02:38.108Z,18.10
2018-06-25T00:05:06.607Z,17.70
2018-06-25T00:07:35.199Z,17.70
2018-06-25T00:10:03.723Z,18.11
2018-06-25T00:12:32.351Z,17.82
2018-06-25T00:15:00.779Z,18.26
2018-06-25T00:17:29.260Z,18.11
2018-06-25T00:19:57.777Z,18.09
2018-06-25T00:22:26.257Z,18.06
2018-06-25T00:24:54.727Z,17.97
2018-06-25T00:27:23.138Z,17.78
2018-06-25T00:29:51.786Z,18.31
2018-06-25T00:32:20.259Z,18.08
2018-06-25T00:34:48.761Z,17.90
2018-06-25T00:37:17.233Z,17.88
2018-06-25T00:39:45.650Z,17.82
2018-06-25T00:42:14.101Z,18.19
2018-06-25T00:44:42.739Z,18.06
2018-06-25T00:47:11.171Z,17.75
2018-06-25T00:49:39.583Z,17.79
2018-06-25T00:52:08.071Z,17.75
2018-06-25T00:54:36.588Z,17.84
2018-06-25T00:57:05.092Z,17.63
2018-06-25T00:59:44.849Z,17.54
2018-06-25T01:02:13.277Z,17.54
2018-06-25T01:04:41.803Z,17.25
2018-06-25T01:07:10.579Z,17.34
2018-06-25T01:09:39.119Z,17.26
2018-06-25T01:12:07.625Z,17.16
2018-06-25T01:14:36.111Z,17.11
2018-06-25T01:17:04.547Z,17.20
2018-06-25T01:19:33.384Z,17.11
2018-06-25T01:22:01.792Z,17.39
2018-06-25T01:24:30.708Z,17.39
2018-06-25T01:26:59.129Z,17.27
2018-06-25T01:29:27.539Z,17.67
2018-06-25T01:31:56.011Z,16.97
2018-06-25T01:34:24.471Z,17.03
2018-06-25T01:36:52.868Z,16.97
2018-06-25T01:39:21.319Z,17.04
2018-06-25T01:41:49.859Z,16.91
2018-06-25T01:44:18.355Z,16.97
2018-06-25T01:46:46.824Z,17.12
2018-06-25T01:49:15.323Z,17.07
2018-06-25T01:51:43.857Z,17.27
2018-06-25T01:54:12.304Z,17.13
2018-06-25T01:56:41.175Z,17.18
2018-06-25T01:59:09.630Z,17.20
2018-06-25T02:01:38.099Z,17.29
2018-06-25T02:04:06.539Z,17.33
2018-06-25T02:06:34.979Z,17.66
2018-06-25T02:09:04.308Z,17.09
2018-06-25T02:11:32.766Z,17.09
2018-06-25T02:14:01.211Z,17.03
2018-06-25T02:16:29.683Z,16.83
2018-06-25T02:18:58.179Z,17.05
2018-06-25T02:21:26.647Z,16.65
2018-06-25T02:23:55.066Z,16.84
2018-06-25T02:26:23.599Z,16.71
2018-06-25T02:28:52.039Z,16.49
2018-06-25T02:31:20.523Z,16.40
2018-06-25T02:33:48.971Z,16.52
2018-06-25T02:36:17.391Z,16.41
2018-06-25T02:41:36.380Z,16.53
2018-06-25T02:44:05.135Z,16.51
2018-06-25T02:46:33.692Z,16.63
2018-06-25T02:49:02.120Z,16.64
2018-06-25T02:51:30.611Z,16.76
2018-06-25T02:53:59.121Z,16.73
2018-06-25T02:56:27.582Z,16.90
2018-06-25T02:58:56.305Z,16.79
2018-06-25T03:01:24.779Z,16.72
2018-06-25T03:03:53.286Z,16.83
2018-06-25T03:06:21.792Z,16.70
2018-06-25T03:08:50.246Z,16.86
2018-06-25T03:11:18.778Z,16.69
2018-06-25T03:13:47.236Z,16.97
2018-06-25T03:16:15.731Z,16.82
2018-06-25T03:18:44.608Z,16.60
2018-06-25T03:21:13.032Z,16.54
2018-06-25T03:23:41.556Z,16.52
2018-06-25T03:26:10.044Z,16.94
2018-06-25T03:28:38.423Z,16.58
2018-06-25T03:31:06.836Z,16.97
2018-06-25T03:33:35.427Z,16.70
2018-06-25T03:36:04.063Z,16.45
2018-06-25T03:38:32.505Z,16.44
2018-06-25T03:41:00.899Z,16.54
2018-06-25T03:43:29.506Z,16.70
2018-06-25T03:45:57.901Z,17.10
2018-06-25T03:48:26.744Z,16.61
2018-06-25T03:50:55.259Z,16.66
2018-06-25T03:53:23.764Z,16.34
2018-06-25T03:55:52.183Z,16.39
2018-06-25T03:58:20.677Z,16.52
2018-06-25T04:00:49.155Z,16.32
2018-06-25T04:03:17.607Z,16.45
2018-06-25T04:05:46.095Z,16.84
2018-06-25T04:08:14.575Z,16.96
2018-06-25T04:10:43.115Z,16.98
2018-06-25T04:13:12.045Z,16.89
2018-06-25T04:15:40.443Z,16.97
2018-06-25T04:18:08.891Z,16.72
2018-06-25T04:20:37.521Z,16.70
2018-06-25T04:23:06.084Z,17.03
2018-06-25T04:25:34.843Z,17.21
2018-06-25T04:28:03.219Z,16.92
2018-06-25T04:30:31.695Z,17.58
2018-06-25T04:33:00.180Z,17.63
2018-06-25T04:35:28.704Z,18.21
2018-06-25T04:37:57.144Z,18.20
2018-06-25T04:40:25.676Z,18.18
2018-06-25T04:42:54.147Z,17.85
2018-06-25T04:45:22.654Z,18.27
2018-06-25T04:47:57.896Z,18.66
2018-06-25T04:50:26.430Z,19.68
2018-06-25T04:52:54.790Z,19.52
2018-06-25T04:55:23.276Z,19.45
2018-06-25T04:57:51.728Z,18.90
2018-06-25T05:00:20.227Z,19.10
2018-06-25T05:02:48.687Z,18.80
2018-06-25T05:05:17.149Z,18.43
2018-06-25T05:07:45.639Z,18.49
2018-06-25T05:10:14.171Z,18.28
2018-06-25T05:12:42.631Z,17.59
2018-06-25T05:15:11.180Z,17.54
2018-06-25T05:17:39.591Z,17.55
2018-06-25T05:20:08.219Z,17.27
2018-06-25T05:22:36.840Z,16.82
2018-06-25T05:25:05.334Z,16.91
2018-06-25T05:27:34.071Z,17.09
2018-06-25T05:30:02.488Z,17.35
2018-06-25T05:32:30.975Z,17.08
2018-06-25T05:34:59.511Z,16.83
2018-06-25T05:37:27.973Z,16.93
2018-06-25T05:39:56.478Z,16.84
2018-06-25T05:42:25.266Z,16.80
2018-06-25T05:44:53.911Z,16.72
2018-06-25T05:47:22.426Z,16.78
2018-06-25T05:49:50.876Z,16.80
2018-06-25T05:52:19.530Z,16.85
2018-06-25T05:54:47.951Z,16.83
2018-06-25T05:57:16.356Z,16.77
2018-06-25T05:59:44.891Z,16.84
2018-06-25T06:02:13.451Z,16.96
2018-06-25T06:04:41.879Z,17.03
2018-06-25T06:07:10.427Z,16.99
2018-06-25T06:09:39.251Z,17.06
2018-06-25T06:12:07.735Z,17.02
2018-06-25T06:14:36.352Z,17.02
2018-06-25T06:17:04.820Z,17.50
2018-06-25T06:19:33.224Z,17.29
2018-06-25T06:22:01.825Z,17.23
2018-06-25T06:24:30.832Z,17.45
2018-06-25T06:26:59.578Z,17.55
2018-06-25T06:29:28.229Z,17.57
2018-06-25T06:31:56.833Z,17.41
2018-06-25T06:34:25.280Z,17.26
2018-06-25T06:36:53.731Z,17.29
2018-06-25T06:39:22.307Z,17.46
2018-06-25T06:41:50.762Z,17.55
2018-06-25T06:44:19.276Z,17.41
2018-06-25T06:46:47.818Z,17.37
2018-06-25T06:49:16.236Z,17.16
2018-06-25T06:51:44.730Z,17.49
2018-06-25T06:54:13.225Z,17.81
2018-06-25T06:56:41.733Z,17.79
2018-06-25T06:59:10.236Z,17.65
2018-06-25T07:01:38.678Z,17.46
2018-06-25T07:04:07.220Z,17.67
2018-06-25T07:06:35.620Z,17.81
2018-06-25T07:09:06.500Z,17.57
2018-06-25T07:11:34.964Z,17.94
2018-06-25T07:14:03.907Z,17.69
2018-06-25T07:16:32.298Z,17.84
2018-06-25T07:19:00.839Z,18.01
2018-06-25T07:21:29.311Z,17.99
2018-06-25T07:23:58.000Z,18.01
2018-06-25T07:26:26.646Z,18.21
2018-06-25T07:28:56.365Z,17.90
2018-06-25T07:31:24.896Z,18.00
2018-06-25T07:33:53.355Z,18.23
2018-06-25T07:36:22.200Z,18.14
2018-06-25T07:38:50.640Z,18.27
2018-06-25T07:41:19.071Z,18.49
2018-06-25T07:43:47.540Z,18.22
2018-06-25T07:46:15.965Z,18.65
2018-06-25T07:48:44.760Z,18.37
2018-06-25T07:51:13.226Z,18.75
2018-06-25T07:53:41.886Z,18.60
2018-06-25T07:56:10.207Z,18.31
2018-06-25T07:58:38.609Z,18.36
2018-06-25T08:01:07.491Z,18.08
2018-06-25T08:03:36.033Z,18.22
2018-06-25T08:06:04.529Z,18.39
2018-06-25T08:08:33.076Z,18.72
2018-06-25T08:11:01.504Z,18.63
2018-06-25T08:13:30.068Z,18.52
2018-06-25T08:15:58.535Z,18.80
2018-06-25T08:18:26.955Z,18.60
2018-06-25T08:20:55.439Z,18.74
2018-06-25T08:23:23.823Z,18.36
2018-06-25T08:25:52.327Z,18.56
2018-06-25T08:28:20.735Z,18.81
2018-06-25T08:30:49.192Z,18.93
2018-06-25T08:33:17.699Z,18.77
2018-06-25T08:35:46.172Z,19.06
2018-06-25T08:38:14.611Z,19.09
2018-06-25T08:40:43.311Z,19.04
2018-06-25T08:43:11.783Z,19.08
2018-06-25T08:45:40.395Z,19.32
2018-06-25T08:48:08.865Z,19.01
2018-06-25T08:50:37.896Z,19.36
2018-06-25T08:53:06.347Z,19.85
2018-06-25T08:55:34.837Z,19.37
2018-06-25T08:58:03.364Z,19.13
2018-06-25T09:00:31.792Z,19.39
2018-06-25T09:03:00.416Z,19.67
2018-06-25T09:05:28.879Z,19.28
2018-06-25T09:07:57.364Z,19.31
2018-06-25T09:10:25.847Z,19.76
2018-06-25T09:12:54.307Z,19.62
2018-06-25T09:15:23.025Z,19.32
2018-06-25T09:17:51.412Z,19.41
2018-06-25T09:20:19.867Z,19.68
2018-06-25T09:22:48.353Z,19.71
2018-06-25T09:25:16.983Z,20.31
2018-06-25T09:27:47.324Z,20.63
2018-06-25T09:30:16.364Z,20.46
2018-06-25T09:32:44.807Z,20.43
2018-06-25T09:35:13.274Z,20.20
2018-06-25T09:37:41.815Z,19.82
2018-06-25T09:40:10.835Z,20.21
2018-06-25T09:42:39.315Z,19.80
2018-06-25T09:45:09.492Z,20.30
2018-06-25T09:47:37.915Z,20.52
2018-06-25T09:50:06.344Z,20.14
2018-06-25T09:52:34.995Z,19.96
2018-06-25T09:55:03.529Z,20.38
2018-06-25T09:57:31.999Z,20.51
2018-06-25T10:00:00.513Z,20.45
2018-06-25T10:02:28.931Z,20.49
2018-06-25T10:04:57.408Z,20.85
2018-06-25T10:07:25.871Z,20.65
2018-06-25T10:09:54.544Z,20.68
2018-06-25T10:12:23.071Z,20.68
2018-06-25T10:14:51.505Z,20.55
2018-06-25T10:17:19.947Z,20.65
2018-06-25T10:19:48.431Z,20.76
2018-06-25T10:22:17.073Z,20.67
2018-06-25T10:24:45.451Z,20.71
2018-06-25T10:27:13.935Z,20.52
2018-06-25T10:29:42.363Z,20.13
2018-06-25T10:32:10.813Z,20.70
2018-06-25T10:34:39.349Z,20.81
2018-06-25T10:37:07.795Z,20.77
2018-06-25T10:39:36.191Z,21.12
2018-06-25T10:42:04.762Z,21.41
2018-06-25T10:44:33.171Z,21.63
2018-06-25T10:47:01.752Z,20.71
2018-06-25T10:49:30.217Z,20.60
2018-06-25T10:51:58.677Z,20.95
2018-06-25T10:54:27.151Z,21.26
2018-06-25T10:56:55.551Z,21.26
2018-06-25T10:59:24.100Z,21.01
2018-06-25T11:01:52.504Z,21.36
2018-06-25T11:04:20.930Z,21.23
2018-06-25T11:06:49.554Z,21.66
2018-06-25T11:09:18.047Z,21.18
2018-06-25T11:11:46.892Z,21.69
2018-06-25T11:14:15.359Z,22.01
2018-06-25T11:16:43.807Z,21.71
2018-06-25T11:19:12.339Z,21.33
2018-06-25T11:21:40.803Z,21.26
2018-06-25T11:24:09.243Z,21.43
2018-06-25T11:26:37.678Z,21.34
2018-06-25T11:29:06.183Z,22.02
2018-06-25T11:31:34.805Z,21.91
2018-06-25T11:34:03.524Z,22.01
2018-06-25T11:36:32.499Z,22.64
2018-06-25T11:39:00.963Z,22.93
2018-06-25T11:41:29.456Z,22.87
2018-06-25T11:43:57.902Z,23.21
2018-06-25T11:46:26.351Z,23.00
2018-06-25T11:48:54.967Z,22.26
2018-06-25T11:51:24.094Z,22.40
2018-06-25T11:53:52.548Z,22.85
2018-06-25T11:56:21.095Z,22.66
2018-06-25T11:58:49.505Z,22.37
2018-06-25T12:01:18.072Z,23.16
2018-06-25T12:03:46.522Z,23.11
2018-06-25T12:06:14.895Z,23.18
2018-06-25T12:08:43.407Z,22.85
2018-06-25T12:11:11.951Z,22.80
2018-06-25T12:13:40.404Z,21.94
2018-06-25T12:16:08.867Z,22.18
2018-06-25T12:18:37.319Z,22.40
2018-06-25T12:21:05.792Z,22.07
2018-06-25T12:23:34.273Z,22.27
2018-06-25T12:26:03.037Z,22.55
2018-06-25T12:28:31.450Z,23.23
2018-06-25T12:30:59.987Z,23.49
2018-06-25T12:33:28.523Z,22.89
2018-06-25T12:35:57.078Z,23.03
2018-06-25T12:38:25.708Z,22.86
2018-06-25T12:40:54.231Z,22.79
2018-06-25T12:43:22.736Z,22.52
2018-06-25T12:45:51.142Z,22.57
2018-06-25T12:48:19.623Z,22.90
2018-06-25T12:50:48.184Z,23.15
2018-06-25T12:53:16.623Z,23.25
2018-06-25T12:55:45.052Z,23.16
2018-06-25T12:58:13.504Z,23.35
2018-06-25T13:00:41.919Z,22.85
2018-06-25T13:03:10.337Z,23.18
2018-06-25T13:05:38.752Z,23.44
2018-06-25T13:08:07.276Z,22.93
2018-06-25T13:10:35.771Z,22.80
2018-06-25T13:13:04.373Z,23.11
2018-06-25T13:15:33.020Z,23.02
2018-06-25T13:18:01.415Z,22.94
2018-06-25T13:20:29.955Z,22.91
2018-06-25T13:22:58.451Z,23.03
2018-06-25T13:25:26.988Z,23.05
2018-06-25T13:27:55.587Z,23.22
2018-06-25T13:30:24.028Z,23.18
2018-06-25T13:32:52.487Z,23.46
2018-06-25T13:35:20.955Z,23.15
2018-06-25T13:37:49.391Z,23.27
2018-06-25T13:40:17.839Z,23.42
2018-06-25T13:42:46.252Z,23.61
2018-06-25T13:45:14.815Z,23.72
2018-06-25T13:47:43.259Z,23.61
2018-06-25T13:50:11.764Z,24.13
2018-06-25T13:52:40.530Z,23.45
2018-06-25T13:55:09.047Z,23.62
2018-06-25T13:57:37.479Z,23.29
2018-06-25T14:00:07.390Z,22.91
2018-06-25T14:02:35.862Z,22.83
2018-06-25T14:05:04.539Z,22.84
2018-06-25T14:07:32.969Z,22.74
2018-06-25T14:10:01.391Z,22.92
2018-06-25T14:12:36.309Z,22.94
2018-06-25T14:15:06.096Z,23.49
2018-06-25T14:17:34.833Z,23.61
2018-06-25T14:20:03.351Z,23.35
2018-06-25T14:22:31.827Z,23.61
2018-06-25T14:25:01.249Z,23.22
2018-06-25T14:27:35.103Z,23.68
2018-06-25T14:30:03.956Z,23.66
2018-06-25T14:32:33.216Z,23.48
2018-06-25T14:35:07.536Z,23.28
2018-06-25T14:37:36.183Z,22.75
2018-06-25T14:40:04.720Z,22.88
2018-06-25T14:42:33.199Z,22.97
2018-06-25T14:45:01.663Z,23.11
2018-06-25T14:47:30.193Z,23.33
2018-06-25T14:49:58.664Z,23.02
2018-06-25T14:52:27.608Z,22.80
2018-06-25T14:54:56.044Z,23.22
2018-06-25T14:57:24.521Z,23.44
2018-06-25T14:59:53.071Z,23.64
2018-06-25T15:02:21.515Z,24.04
2018-06-25T15:04:49.971Z,23.84
2018-06-25T15:07:18.408Z,23.97
2018-06-25T15:09:47.059Z,24.01
2018-06-25T15:12:15.727Z,23.75
2018-06-25T15:14:44.207Z,23.46
2018-06-25T15:17:12.628Z,23.39
2018-06-25T15:19:41.323Z,23.02
2018-06-25T15:22:09.767Z,23.04
2018-06-25T15:24:39.170Z,23.07
2018-06-25T15:27:07.611Z,22.93
2018-06-25T15:29:36.217Z,23.13
2018-06-25T15:32:04.675Z,23.32
2018-06-25T15:34:33.158Z,23.11
2018-06-25T15:37:01.688Z,23.30
2018-06-25T15:39:30.087Z,23.31
2018-06-25T15:41:58.923Z,23.24
2018-06-25T15:44:27.303Z,23.33
2018-06-25T15:46:55.742Z,23.18
2018-06-25T15:49:24.301Z,23.10
2018-06-25T15:51:52.735Z,22.86
2018-06-25T15:54:21.200Z,22.93
2018-06-25T15:56:49.707Z,22.93
2018-06-25T15:59:18.173Z,22.74
2018-06-25T16:01:46.613Z,22.85
2018-06-25T16:04:15.095Z,22.92
2018-06-25T16:06:43.828Z,22.78
2018-06-25T16:09:12.322Z,22.89
2018-06-25T16:11:40.728Z,22.79
2018-06-25T16:14:09.235Z,22.91
2018-06-25T16:16:37.680Z,23.14
2018-06-25T16:19:06.192Z,23.04
2018-06-25T16:21:34.588Z,23.26
2018-06-25T16:24:03.041Z,23.13
2018-06-25T16:26:31.492Z,23.34
2018-06-25T16:28:59.952Z,23.32
2018-06-25T16:31:28.508Z,22.91
2018-06-25T16:33:57.162Z,23.07
2018-06-25T16:36:25.616Z,23.05
2018-06-25T16:38:54.139Z,22.56
2018-06-25T16:41:22.623Z,22.89
2018-06-25T16:43:51.139Z,22.76
2018-06-25T16:46:19.618Z,22.76
2018-06-25T16:48:48.041Z,22.78
2018-06-25T16:51:16.459Z,22.52
2018-06-25T16:53:45.032Z,22.53
2018-06-25T16:56:13.489Z,22.54
2018-06-25T16:58:41.972Z,22.72
2018-06-25T17:01:10.492Z,22.51
2018-06-25T17:03:38.907Z,22.31
2018-06-25T17:06:07.337Z,22.47
2018-06-25T17:08:35.899Z,22.42
2018-06-25T17:11:04.452Z,22.28
2018-06-25T17:13:33.020Z,22.33
2018-06-25T17:16:01.583Z,22.37
2018-06-25T17:18:30.880Z,22.15
2018-06-25T17:20:59.404Z,22.46
2018-06-25T17:23:28.195Z,22.33
2018-06-25T17:25:56.745Z,22.16
2018-06-25T17:28:25.589Z,22.14
2018-06-25T17:30:54.707Z,22.36
2018-06-25T17:33:23.172Z,22.17
2018-06-25T17:35:51.756Z,21.89
2018-06-25T17:38:20.227Z,22.08
2018-06-25T17:40:48.743Z,22.10
2018-06-25T17:43:17.195Z,21.92
2018-06-25T17:45:45.874Z,21.69
2018-06-25T17:48:14.333Z,21.69
2018-06-25T17:50:42.743Z,21.67
2018-06-25T17:53:11.236Z,21.26
2018-06-25T17:55:39.738Z,21.49
2018-06-25T17:58:08.439Z,21.24
2018-06-25T18:00:36.953Z,21.52
2018-06-25T18:03:05.667Z,21.36
2018-06-25T18:05:34.097Z,21.49
2018-06-25T18:08:02.499Z,21.48
2018-06-25T18:10:31.004Z,21.64
2018-06-25T18:12:59.540Z,21.79
2018-06-25T18:15:28.046Z,21.77
2018-06-25T18:17:56.639Z,21.87
2018-06-25T18:20:25.051Z,21.69
2018-06-25T18:22:53.590Z,21.54
2018-06-25T18:25:22.040Z,21.36
2018-06-25T18:27:50.527Z,21.48
2018-06-25T18:30:19.047Z,21.29
2018-06-25T18:32:47.511Z,21.27
2018-06-25T18:35:16.255Z,21.05
2018-06-25T18:37:44.783Z,21.04
2018-06-25T18:40:13.380Z,20.98
2018-06-25T18:42:41.899Z,20.88
2018-06-25T18:45:10.514Z,20.98
2018-06-25T18:47:39.135Z,20.96
2018-06-25T18:50:07.673Z,21.27
2018-06-25T18:52:36.098Z,21.21
2018-06-25T18:55:04.628Z,21.33
2018-06-25T18:57:33.043Z,21.25
2018-06-25T19:00:03.141Z,21.08
2018-06-25T19:02:31.671Z,21.40
2018-06-25T19:05:00.523Z,21.31
2018-06-25T19:07:29.038Z,21.15
2018-06-25T19:09:57.688Z,21.18
2018-06-25T19:12:26.442Z,21.36
2018-06-25T19:14:54.977Z,21.27
2018-06-25T19:17:23.503Z,21.09
2018-06-25T19:19:52.438Z,20.90
2018-06-25T19:22:21.051Z,20.73
2018-06-25T19:24:49.631Z,20.85
2018-06-25T19:27:18.233Z,20.91
2018-06-25T19:29:47.105Z,20.76
2018-06-25T19:32:15.695Z,20.85
2018-06-25T19:34:44.295Z,20.46
2018-06-25T19:37:14.945Z,20.58
2018-06-25T19:39:43.833Z,20.55
2018-06-25T19:42:12.348Z,20.60
2018-06-25T19:44:41.143Z,20.27
2018-06-25T19:47:09.709Z,20.09
2018-06-25T19:49:38.308Z,20.12
2018-06-25T19:52:06.833Z,20.05
2018-06-25T19:54:37.923Z,19.98
2018-06-25T19:57:06.486Z,19.88
2018-06-25T19:59:36.137Z,19.92
2018-06-25T20:02:04.825Z,19.71
2018-06-25T20:04:33.471Z,19.62
2018-06-25T20:07:02.107Z,19.38
2018-06-25T20:09:30.675Z,19.23
2018-06-25T20:11:59.335Z,19.26
2018-06-25T20:14:27.802Z,19.14
2018-06-25T20:16:56.424Z,19.16
2018-06-25T20:19:25.190Z,18.99
2018-06-25T20:21:53.764Z,19.11
2018-06-25T20:24:22.205Z,18.96
2018-06-25T20:26:50.781Z,19.13
2018-06-25T20:29:20.371Z,18.83
2018-06-25T20:31:49.923Z,18.94
2018-06-25T20:34:18.436Z,18.87
2018-06-25T20:36:46.973Z,19.00
2018-06-25T20:39:15.493Z,19.04
2018-06-25T20:41:44.025Z,18.90
2018-06-25T20:44:12.875Z,18.88
2018-06-25T20:46:41.656Z,19.13
2018-06-25T20:49:10.124Z,19.03
2018-06-25T20:51:38.589Z,18.93
2018-06-25T20:54:07.268Z,18.86
2018-06-25T20:56:35.984Z,18.62
2018-06-25T20:59:04.835Z,18.56
2018-06-25T21:01:33.359Z,18.48
2018-06-25T21:04:01.920Z,18.62
2018-06-25T21:06:30.409Z,18.33
2018-06-25T21:08:58.943Z,18.06
2018-06-25T21:11:27.496Z,17.82
2018-06-25T21:13:56.000Z,17.77
2018-06-25T21:16:24.616Z,17.51
2018-06-25T21:18:53.811Z,17.58
2018-06-25T21:21:22.441Z,17.29
2018-06-25T21:23:50.923Z,17.23
2018-06-25T21:26:19.476Z,17.19
2018-06-25T21:28:47.999Z,17.46
2018-06-25T21:31:16.472Z,17.16
2018-06-25T21:33:45.055Z,17.06
2018-06-25T21:36:13.660Z,16.95
2018-06-25T21:38:42.095Z,16.99
2018-06-25T21:41:10.765Z,16.91
2018-06-25T21:43:39.240Z,16.95
2018-06-25T21:46:07.743Z,16.95
2018-06-25T21:48:36.233Z,16.86
2018-06-25T21:51:04.744Z,16.85
2018-06-25T21:53:33.191Z,16.65
2018-06-25T21:56:01.716Z,16.43
2018-06-25T21:58:30.278Z,16.16
2018-06-25T22:00:58.787Z,16.28
2018-06-25T22:03:27.590Z,16.41
2018-06-25T22:05:56.104Z,16.60
2018-06-25T22:08:24.599Z,16.21
2018-06-25T22:10:53.089Z,16.06
2018-06-25T22:13:21.567Z,16.16
2018-06-25T22:15:50.126Z,15.99
2018-06-25T22:18:18.586Z,16.26
2018-06-25T22:20:47.147Z,16.20
2018-06-25T22:23:15.667Z,16.09
2018-06-25T22:25:44.147Z,16.03
2018-06-25T22:28:12.683Z,16.08
2018-06-25T22:30:41.203Z,15.87
2018-06-25T22:33:09.719Z,15.73
2018-06-25T22:35:38.199Z,15.72
2018-06-25T22:38:06.931Z,15.55
2018-06-25T22:40:35.447Z,15.67
2018-06-25T22:43:03.891Z,15.61
2018-06-25T22:45:32.451Z,15.54
2018-06-25T22:48:00.890Z,15.62
2018-06-25T22:50:29.376Z,15.62
2018-06-25T22:52:57.895Z,15.57
2018-06-25T22:55:31.851Z,15.44
2018-06-25T22:58:00.731Z,14.83
2018-06-25T23:00:29.172Z,14.65
2018-06-25T23:02:57.720Z,14.72
2018-06-25T23:05:26.311Z,14.58
2018-06-25T23:07:54.786Z,14.86
2018-06-25T23:10:23.359Z,14.80
2018-06-25T23:12:51.770Z,14.60
2018-06-25T23:15:20.263Z,14.49
2018-06-25T23:17:48.787Z,14.80
2018-06-25T23:20:17.211Z,14.73
2018-06-25T23:22:46.320Z,14.69
2018-06-25T23:25:14.743Z,14.81
2018-06-25T23:27:43.271Z,14.67
2018-06-25T23:30:11.744Z,14.67
2018-06-25T23:32:40.246Z,14.66
2018-06-25T23:35:08.955Z,14.93
2018-06-25T23:37:37.395Z,14.98
2018-06-25T23:40:05.923Z,15.03
2018-06-25T23:42:34.383Z,15.08
2018-06-25T23:45:02.791Z,14.99
2018-06-25T23:47:31.571Z,14.86
2018-06-25T23:50:00.091Z,14.79
2018-06-25T23:52:28.548Z,14.60
2018-06-25T23:54:57.003Z,14.58
2018-06-25T23:57:25.695Z,14.73
2018-06-25T23:59:54.556Z,14.85
